Архив погоды в Пскове

Метеограмма Псков
Понедельник, 17 Июня
Время местн. Темп Ветер Видим Явления Облачность нижн/средн/верх Атм. давл. Влжн Точка росы ВНГО R Сост. почвы Tg s
Напр Скр Прв ур.ст ур.м изм
03:00 +13.2° штиль 0 - 20 км - переменная облачность 757 761 -0.2 95% +12.4° 1 км - - - -
00:00 +17.2° В 1 - 20 км - переменная облачность 757 761 +0.1 85% +14.6° 1 км - - - -
Воскресенье, 16 Июня
Время местн. Темп Ветер Видим Явления Облачность нижн/средн/верх Атм. давл. Влжн Точка росы ВНГО R Сост. почвы Tg s
Напр Скр Прв ур.ст ур.м изм
21:00 +22.6° штиль 0 - 20 км - переменная облачность 757 761 -0.1 50% +11.8° 1 км 0 - - -
18:00 +26.6° З,С-З 1 - 20 км - переменная облачность 757 761 -0.6 40% +11.9° 1 км - - - -
15:00 +25.7° Ю-З 1 - 20 км - переменная облачность 758 762 -1 39% +10.6° 1 км - - - -
12:00 +24.7° Ю-З 1 - 20 км - переменная облачность 759 763 -0.2 39% +10° 1 км - - - -
09:00 +21.9° Ю,Ю-З 1 - 20 км - переменная облачность 759 763 +0.2 61% +14° - 0 Влажная (без луж) - -
06:00 +12.9° штиль 0 - 20 км - переменная облачность 759 763 -0.4 97% +12.4° более 2.5 км - - - -
03:00 +11.1° штиль 0 - 20 км - переменная облачность 759 763 +0.5 97% +10.6° - - - - -
00:00 +13.3° штиль 0 - 20 км - ясно 759 763 -0.1 94% +12.4° более 2.5 км - - - -
Суббота, 15 Июня
Время местн. Темп Ветер Видим Явления Облачность нижн/средн/верх Атм. давл. Влжн Точка росы ВНГО R Сост. почвы Tg s
Напр Скр Прв ур.ст ур.м изм
21:00 +20.1° С-З 1 - 20 км облака развиваются {ливневые осадки} облачно с прояснениями 759 763 -0.2 64% +13.1° 1 км 0.3 - - -
18:00 +23.8° З,С-З 3 - 20 км - облачно с прояснениями 759 763 -0.8 44% +10.9° 1 км - - - -
15:00 +23.5° С-З 2 - 20 км - переменная облачность 760 764 -0.7 52% +13.2° 1 км - - - -
12:00 +19° З,С-З 3 - 20 км - преимущественно облачно 761 764 +0.1 68% +13° 1 км - - - -
09:00 +16.2° З,С-З 2 - 20 км - преимущественно облачно 760 764 +0.4 79% +12.6° 1 км 0 - - -
06:00 +14.7° З,С-З 3 - 20 км - облачно 760 764 +0.2 84% +12° 1 км - - - -
03:00 +15.5° З,С-З 2 - 20 км - переменная облачность 760 764 -0.2 86% +13.2° более 2.5 км - - - -
00:00 +18.5° З,С-З 2 - 20 км - облачно с прояснениями 760 764 +0.7 79% +14.8° 1 км - - - -
Пятница, 14 Июня
Время местн. Темп Ветер Видим Явления Облачность нижн/средн/верх Атм. давл. Влжн Точка росы ВНГО R Сост. почвы Tg s
Напр Скр Прв ур.ст ур.м изм
21:00 +19.2° С-З 2 - 20 км - облачно с прояснениями 759 763 +0.2 78% +15.2° 1 км 0 - - -
18:00 +22.3° С-З 2 - 20 км - облачно 759 763 -0.1 73% +17.3° 1 км - - - -
15:00 +24.6° С-З 2 - 20 км - облачно с прояснениями 759 763 +0.2 63% +17.2° - - - - -
12:00 +22° С-З 2 - 20 км - преимущественно облачно 759 763 +0.8 75% +17.3° 1 км - - - -
09:00 +22.3° З 2 - 20 км небо без изменений {гроза} облачно с прояснениями 758 762 -0.3 79% +18.4° 1 км 2 Влажная (без луж) - -
06:00 +18° В 1 - 20 км облака рассеиваются {гроза} облачно с прояснениями 759 763 -0.2 95% +17.2° 1 км - - - -
03:00 +18.4° С,С-В 2 - 20 км гроза без осадков {ливневые осадки} облачно 759 763 -1 93% +17.3° 1 км - - - -
00:00 +20° В,Ю-В 2 - 20 км - облачно 760 764 -0.4 78% +16.1° более 2.5 км - - - -